Time;durP1;ratioP1;P1;durP2;ratioP2;P2;SDS_P1;SDS_P2;PMS_P1;PMS_P2;Temp;Humidity;BMP_temperature;BMP_pressure;BME280_temperature;BME280_humidity;BME280_pressure;Samples;Min_cycle;Max_cycle;Signal;HPM_P1;HPM_P2
2022/04/03 00:00:41;;;;;;;1.23;0.87;;;21.90;51.10;;;;;;5104765;28;20416;-90
2022/04/03 00:03:07;;;;;;;1.40;0.87;;;21.90;51.10;;;;;;5105804;28;20201;-90
2022/04/03 00:05:38;;;;;;;2.13;1.37;;;21.90;51.10;;;;;;5104662;28;20510;-90
2022/04/03 00:08:12;;;;;;;1.70;1.20;;;21.90;51.10;;;;;;5105228;28;20449;-90
2022/04/03 00:10:39;;;;;;;1.20;1.03;;;21.90;51.10;;;;;;5104359;28;20427;-90
2022/04/03 00:13:06;;;;;;;1.37;1.00;;;21.90;51.10;;;;;;5104793;28;20423;-90
2022/04/03 00:15:32;;;;;;;1.60;1.13;;;21.90;51.10;;;;;;5104495;28;20412;-90
2022/04/03 00:17:58;;;;;;;1.60;1.30;;;21.90;51.10;;;;;;5106568;28;20897;-90
2022/04/03 00:20:24;;;;;;;1.43;1.10;;;21.90;51.10;;;;;;5105495;28;20416;-90
2022/04/03 00:22:52;;;;;;;2.03;1.10;;;21.90;51.00;;;;;;5104060;28;20197;-90
2022/04/03 00:25:19;;;;;;;1.80;1.30;;;21.90;51.00;;;;;;5104559;28;20457;-90
2022/04/03 00:27:45;;;;;;;4.43;1.50;;;21.90;51.00;;;;;;5104328;28;20909;-90
2022/04/03 00:30:12;;;;;;;1.20;0.90;;;21.90;51.00;;;;;;5104632;28;20473;-90
2022/04/03 00:32:38;;;;;;;1.83;0.90;;;21.90;51.00;;;;;;5104685;28;20424;-90
2022/04/03 00:35:05;;;;;;;1.93;1.30;;;21.90;51.10;;;;;;5105029;28;20917;-90
2022/04/03 00:37:31;;;;;;;2.13;1.00;;;21.90;51.00;;;;;;5106427;28;20411;-90
2022/04/03 00:39:57;;;;;;;1.63;1.17;;;21.90;51.00;;;;;;5105170;28;20450;-90
2022/04/03 00:42:23;;;;;;;1.37;1.00;;;21.90;51.00;;;;;;5105297;28;20416;-90
2022/04/03 00:44:49;;;;;;;1.67;1.10;;;21.90;51.00;;;;;;5105727;28;20229;-90
2022/04/03 00:47:17;;;;;;;1.70;1.20;;;21.90;51.00;;;;;;5105109;28;20407;-90
2022/04/03 00:49:43;;;;;;;1.60;1.00;;;21.90;51.00;;;;;;5105818;28;20176;-90
2022/04/03 00:52:08;;;;;;;1.80;1.07;;;21.90;51.00;;;;;;5104882;28;20408;-90
2022/04/03 00:54:35;;;;;;;1.20;0.90;;;21.90;51.00;;;;;;5103960;28;20246;-90
2022/04/03 00:57:07;;;;;;;1.90;1.20;;;21.90;51.00;;;;;;5105105;28;20173;-90
2022/04/03 00:59:34;;;;;;;1.20;1.03;;;21.90;51.00;;;;;;5106244;28;20388;-92
2022/04/03 01:02:00;;;;;;;1.30;1.10;;;21.90;51.00;;;;;;5106471;28;20418;-89
2022/04/03 01:04:26;;;;;;;1.10;0.83;;;21.90;51.00;;;;;;5105323;28;20534;-90
2022/04/03 01:06:51;;;;;;;1.30;0.90;;;21.90;51.00;;;;;;5104668;28;20181;-89
2022/04/03 01:09:17;;;;;;;1.63;1.13;;;21.90;51.00;;;;;;5106602;28;20473;-89
2022/04/03 01:15:05;;;;;;;1.30;0.90;;;21.90;51.00;;;;;;5105181;28;20635;-89
2022/04/03 01:17:31;;;;;;;1.87;1.60;;;21.80;50.90;;;;;;5103711;28;20426;-89
2022/04/03 01:19:57;;;;;;;1.53;1.43;;;21.90;51.10;;;;;;5104094;28;20416;-89
2022/04/03 01:22:22;;;;;;;1.13;0.87;;;21.90;51.00;;;;;;5104332;28;20174;-90
2022/04/03 01:24:55;;;;;;;1.87;1.00;;;21.80;51.00;;;;;;5104258;28;20693;-89
2022/04/03 01:27:21;;;;;;;1.33;1.13;;;21.90;51.00;;;;;;5104552;28;20166;-89
2022/04/03 01:29:48;;;;;;;1.93;0.93;;;21.90;51.00;;;;;;5104817;28;20411;-89
2022/04/03 01:32:14;;;;;;;1.63;1.10;;;21.90;51.00;;;;;;5104514;28;20166;-89
2022/04/03 01:34:39;;;;;;;1.90;1.20;;;21.90;51.00;;;;;;5103949;28;20438;-89
2022/04/03 01:37:05;;;;;;;1.33;1.10;;;21.90;51.00;;;;;;5103939;28;20525;-91
2022/04/03 01:42:54;;;;;;;1.30;1.07;;;21.90;51.00;;;;;;5109204;28;20195;-90
2022/04/03 01:45:20;;;;;;;2.00;1.20;;;21.80;51.00;;;;;;5107453;28;20423;-91
2022/04/03 01:47:46;;;;;;;1.67;0.80;;;21.80;51.00;;;;;;5107045;28;20995;-90
2022/04/03 01:50:12;;;;;;;1.60;1.10;;;21.80;51.00;;;;;;5107641;28;20467;-91
2022/04/03 01:52:38;;;;;;;1.90;1.03;;;21.80;51.00;;;;;;5107415;28;20196;-91
2022/04/03 01:55:05;;;;;;;1.47;1.03;;;21.80;51.00;;;;;;5107256;28;20420;-91
2022/04/03 01:57:31;;;;;;;1.03;0.83;;;21.80;51.00;;;;;;5108347;28;20189;-91
2022/04/03 01:59:59;;;;;;;1.20;0.87;;;21.80;50.90;;;;;;5106826;28;20439;-91
2022/04/03 02:02:25;;;;;;;1.53;1.30;;;21.80;50.90;;;;;;5108274;28;20174;-91
2022/04/03 02:04:50;;;;;;;1.50;1.00;;;21.80;50.90;;;;;;5108052;28;20588;-91
2022/04/03 02:07:16;;;;;;;1.57;1.10;;;21.80;50.90;;;;;;5106869;28;20195;-91
2022/04/03 02:09:42;;;;;;;1.40;1.30;;;21.80;50.90;;;;;;5106957;28;20180;-89
2022/04/03 02:12:09;;;;;;;1.77;1.10;;;21.80;50.90;;;;;;5107003;28;20404;-91
2022/04/03 02:14:35;;;;;;;1.43;0.93;;;21.80;50.90;;;;;;5108662;28;20437;-90
2022/04/03 02:17:01;;;;;;;1.67;1.00;;;21.80;50.90;;;;;;5106822;28;20447;-90
2022/04/03 02:19:26;;;;;;;1.23;1.00;;;21.80;50.90;;;;;;5106886;28;20196;-90
2022/04/03 02:21:52;;;;;;;1.53;1.03;;;21.80;50.90;;;;;;5107079;28;20188;-90
2022/04/03 02:24:18;;;;;;;2.07;1.33;;;21.80;50.90;;;;;;5106915;28;20213;-90
2022/04/03 02:26:44;;;;;;;1.70;0.93;;;21.80;50.90;;;;;;5107142;28;20170;-90
2022/04/03 02:32:32;;;;;;;1.17;0.90;;;21.80;50.90;;;;;;5108324;28;20378;-90
2022/04/03 02:38:20;;;;;;;1.60;1.20;;;21.80;51.00;;;;;;5107960;28;20210;-90
2022/04/03 02:40:46;;;;;;;1.63;0.97;;;21.80;51.00;;;;;;5106956;28;20411;-90
2022/04/03 02:43:12;;;;;;;1.07;0.70;;;21.80;51.00;;;;;;5107281;28;20279;-90
2022/04/03 02:45:39;;;;;;;1.10;0.90;;;21.80;51.00;;;;;;5106735;28;20412;-91
2022/04/03 02:48:06;;;;;;;1.33;0.93;;;21.80;51.00;;;;;;5106592;28;20176;-90
2022/04/03 02:50:32;;;;;;;1.27;0.80;;;21.80;51.00;;;;;;5106632;28;20472;-90
2022/04/03 02:52:58;;;;;;;1.07;0.80;;;21.80;51.00;;;;;;5106254;28;20446;-90
2022/04/03 02:55:25;;;;;;;1.83;1.10;;;21.80;51.50;;;;;;5107654;28;20404;-90
2022/04/03 02:57:52;;;;;;;1.13;0.87;;;21.80;51.00;;;;;;5107028;28;20220;-90
2022/04/03 03:00:19;;;;;;;1.63;0.90;;;21.80;50.90;;;;;;5105784;28;20423;-90
2022/04/03 03:02:47;;;;;;;1.30;1.00;;;21.80;50.90;;;;;;5106368;28;20451;-90
2022/04/03 03:05:14;;;;;;;1.20;0.87;;;21.80;50.90;;;;;;5106507;28;20423;-90
2022/04/03 03:07:41;;;;;;;1.53;0.97;;;21.80;50.90;;;;;;5105512;28;20447;-90
2022/04/03 03:10:15;;;;;;;1.30;0.93;;;21.70;50.90;;;;;;5106126;28;20453;-90
2022/04/03 03:12:41;;;;;;;1.30;0.90;;;21.80;50.90;;;;;;5105764;28;20747;-91
2022/04/03 03:15:07;;;;;;;1.70;1.03;;;21.80;50.90;;;;;;5107563;28;20419;-90
2022/04/03 03:17:33;;;;;;;1.30;0.80;;;21.70;50.90;;;;;;5106909;28;20248;-90
2022/04/03 03:19:59;;;;;;;1.27;1.00;;;21.70;50.90;;;;;;5106758;28;20442;-90
2022/04/03 03:22:25;;;;;;;1.17;0.90;;;21.70;50.90;;;;;;5105715;28;20412;-90
2022/04/03 03:24:51;;;;;;;1.73;1.00;;;21.80;50.90;;;;;;5106884;28;20174;-90
2022/04/03 03:27:17;;;;;;;1.10;0.83;;;21.80;50.90;;;;;;5108713;28;20200;-90
2022/04/03 03:29:43;;;;;;;1.40;1.03;;;21.80;50.90;;;;;;5106670;28;20420;-90
2022/04/03 03:32:16;;;;;;;1.10;1.00;;;21.70;50.90;;;;;;5107814;28;20422;-90
2022/04/03 03:34:42;;;;;;;1.07;0.80;;;21.80;50.90;;;;;;5111036;28;20662;-90
2022/04/03 03:37:08;;;;;;;1.10;0.93;;;21.70;50.90;;;;;;5106547;28;20459;-90
2022/04/03 03:39:34;;;;;;;1.67;0.90;;;21.70;50.90;;;;;;5107949;28;20169;-91
2022/04/03 03:45:22;;;;;;;1.20;0.87;;;21.70;50.90;;;;;;5107248;28;20399;-90
2022/04/03 03:47:48;;;;;;;1.07;0.80;;;21.70;50.90;;;;;;5109216;28;20400;-90
2022/04/03 03:50:15;;;;;;;1.30;1.00;;;21.70;50.90;;;;;;5106930;28;20177;-90
2022/04/03 03:52:42;;;;;;;2.80;1.00;;;21.70;50.90;;;;;;5089847;28;20182;-90
2022/04/03 03:55:08;;;;;;;1.10;0.90;;;21.70;50.90;;;;;;5107766;28;20410;-90
2022/04/03 03:57:34;;;;;;;1.60;0.80;;;21.70;50.90;;;;;;5105707;28;20475;-90
2022/04/03 04:00:03;;;;;;;1.10;1.00;;;21.70;50.80;;;;;;5107283;28;20423;-89
2022/04/03 04:02:30;;;;;;;1.10;0.97;;;21.70;50.80;;;;;;5107355;28;20411;-90
2022/04/03 04:04:57;;;;;;;2.43;0.80;;;21.70;50.80;;;;;;5106176;28;20424;-90
2022/04/03 04:07:23;;;;;;;1.57;0.90;;;21.70;50.90;;;;;;5107191;28;20491;-90
2022/04/03 04:09:51;;;;;;;1.20;0.90;;;21.70;50.80;;;;;;5126765;28;20411;-90
2022/04/03 04:12:17;;;;;;;1.33;1.10;;;21.70;50.80;;;;;;5125503;28;20180;-90
2022/04/03 04:14:43;;;;;;;1.57;1.10;;;21.70;50.80;;;;;;5126282;28;20406;-90
2022/04/03 04:20:28;;;;;;;1.27;0.90;;;21.70;50.80;;;;;;5108328;28;20919;-91
2022/04/03 04:22:54;;;;;;;1.20;0.80;;;21.70;50.80;;;;;;5125928;28;20478;-90
2022/04/03 04:25:20;;;;;;;0.90;0.80;;;21.70;50.90;;;;;;5112001;28;20414;-90
2022/04/03 04:27:46;;;;;;;1.97;1.10;;;21.70;50.80;;;;;;5127657;28;20817;-90
2022/04/03 04:30:14;;;;;;;1.20;0.80;;;21.70;50.90;;;;;;5126000;28;20431;-90
2022/04/03 04:32:40;;;;;;;1.33;1.20;;;21.70;50.80;;;;;;5127400;28;20414;-90
2022/04/03 04:35:06;;;;;;;1.30;0.97;;;21.60;50.70;;;;;;5127157;28;20434;-90
2022/04/03 04:37:33;;;;;;;1.13;1.00;;;21.70;50.80;;;;;;5127443;28;20398;-90
2022/04/03 04:39:59;;;;;;;1.20;0.83;;;21.60;50.80;;;;;;5130245;28;20446;-89
2022/04/03 04:42:25;;;;;;;1.23;0.90;;;21.70;50.90;;;;;;5127134;28;20864;-90
2022/04/03 04:44:51;;;;;;;1.10;0.80;;;21.70;50.90;;;;;;5126562;28;20403;-90
2022/04/03 04:47:16;;;;;;;1.00;0.90;;;21.70;50.90;;;;;;5124885;28;20169;-90
2022/04/03 04:49:42;;;;;;;2.00;1.00;;;21.70;50.90;;;;;;5124949;28;20173;-90
2022/04/03 04:52:08;;;;;;;1.13;0.83;;;21.70;50.90;;;;;;5126057;28;20162;-90
2022/04/03 04:54:35;;;;;;;1.00;0.80;;;21.60;50.80;;;;;;5126570;28;20172;-90
2022/04/03 04:57:01;;;;;;;1.23;1.00;;;21.60;50.80;;;;;;5125127;28;20443;-90
2022/04/03 04:59:27;;;;;;;1.13;1.00;;;21.60;50.80;;;;;;5124831;28;20414;-90
2022/04/03 05:01:56;;;;;;;1.07;0.70;;;21.60;50.80;;;;;;5125013;28;20436;-89
2022/04/03 05:04:23;;;;;;;1.30;0.80;;;21.60;50.80;;;;;;5124876;28;20454;-90
2022/04/03 05:06:50;;;;;;;1.20;0.80;;;21.60;50.80;;;;;;5124955;28;20494;-89
2022/04/03 05:09:17;;;;;;;0.90;0.70;;;21.60;50.80;;;;;;5125261;28;20410;-90
2022/04/03 05:11:46;;;;;;;0.97;0.80;;;21.60;50.80;;;;;;5124694;28;20407;-89
2022/04/03 05:14:13;;;;;;;1.30;1.00;;;21.60;50.80;;;;;;5128295;28;20411;-89
2022/04/03 05:16:40;;;;;;;1.10;0.90;;;21.60;50.80;;;;;;5128581;28;20421;-89
2022/04/03 05:19:06;;;;;;;1.10;0.90;;;21.70;50.90;;;;;;5129230;28;20407;-89
2022/04/03 05:21:32;;;;;;;1.00;0.70;;;21.60;50.80;;;;;;5130815;28;20428;-89
2022/04/03 05:24:00;;;;;;;1.30;1.10;;;21.70;50.90;;;;;;5132793;28;20438;-89
2022/04/03 05:29:48;;;;;;;1.30;0.90;;;21.70;50.90;;;;;;5131748;28;20373;-89
2022/04/03 05:32:14;;;;;;;1.17;0.80;;;21.60;50.80;;;;;;5132053;28;20415;-88
2022/04/03 05:34:40;;;;;;;0.90;0.70;;;21.60;50.80;;;;;;5129061;28;20497;-89
2022/04/03 05:37:07;;;;;;;1.40;0.90;;;21.70;50.90;;;;;;5131116;28;20426;-89
2022/04/03 05:39:33;;;;;;;1.00;0.80;;;21.60;51.40;;;;;;5131448;28;20192;-89
2022/04/03 05:41:58;;;;;;;1.03;0.80;;;21.70;50.90;;;;;;5128114;28;20757;-88
2022/04/03 05:44:25;;;;;;;1.40;0.90;;;21.60;50.80;;;;;;5128399;28;20197;-89
2022/04/03 05:46:51;;;;;;;1.63;0.90;;;21.60;50.80;;;;;;5128808;28;20173;-89
2022/04/03 05:49:18;;;;;;;1.00;0.80;;;21.70;50.90;;;;;;5128079;28;20415;-89
2022/04/03 05:51:44;;;;;;;1.00;0.70;;;21.70;50.90;;;;;;5118911;28;20408;-89
2022/04/03 05:54:10;;;;;;;1.00;0.80;;;21.70;50.90;;;;;;5108224;28;20913;-89
2022/04/03 05:56:36;;;;;;;1.30;0.87;;;21.70;50.80;;;;;;5109104;28;20441;-89
2022/04/03 06:02:25;;;;;;;0.97;0.80;;;21.70;50.80;;;;;;5109191;28;20414;-89
2022/04/03 06:04:51;;;;;;;1.33;1.10;;;21.60;50.80;;;;;;5107160;28;20499;-89
2022/04/03 06:07:16;;;;;;;1.60;0.90;;;21.60;50.80;;;;;;5107369;28;20942;-89
2022/04/03 06:09:42;;;;;;;0.97;0.80;;;21.60;50.80;;;;;;5107740;28;20178;-89
2022/04/03 06:12:09;;;;;;;1.30;0.80;;;21.60;50.80;;;;;;5109009;28;20166;-89
2022/04/03 06:14:34;;;;;;;0.90;0.70;;;21.60;50.80;;;;;;5108889;28;20169;-89
2022/04/03 06:20:23;;;;;;;1.33;0.77;;;21.60;50.80;;;;;;5109753;28;20157;-89
2022/04/03 06:22:49;;;;;;;1.13;0.70;;;21.60;50.80;;;;;;5109985;28;20522;-89
2022/04/03 06:25:15;;;;;;;1.73;0.87;;;21.60;50.80;;;;;;5109650;28;20412;-89
2022/04/03 06:27:42;;;;;;;0.90;0.70;;;21.70;50.90;;;;;;5108198;28;20174;-89
2022/04/03 06:30:08;;;;;;;1.03;0.80;;;21.70;50.90;;;;;;5110903;28;20174;-89
2022/04/03 06:32:35;;;;;;;0.80;0.60;;;21.60;50.80;;;;;;5108448;28;20411;-89
2022/04/03 06:35:01;;;;;;;1.10;0.80;;;21.70;50.90;;;;;;5110599;28;20408;-89
2022/04/03 06:37:27;;;;;;;0.90;0.80;;;21.70;50.90;;;;;;5111416;28;20411;-90
2022/04/03 06:39:53;;;;;;;1.00;0.70;;;21.70;50.90;;;;;;5109525;28;20186;-89
2022/04/03 06:42:19;;;;;;;0.90;0.80;;;21.70;50.90;;;;;;5109460;28;20206;-89
2022/04/03 06:44:45;;;;;;;1.00;0.90;;;21.70;50.90;;;;;;5107858;28;20426;-90
2022/04/03 06:47:18;;;;;;;0.80;0.60;;;21.70;50.90;;;;;;5107245;28;20166;-89
2022/04/03 06:49:44;;;;;;;1.17;0.80;;;21.70;50.90;;;;;;5108888;28;20411;-89
2022/04/03 06:52:10;;;;;;;1.00;0.67;;;21.70;50.90;;;;;;5108420;28;20428;-89
2022/04/03 06:54:36;;;;;;;1.00;0.80;;;21.70;50.90;;;;;;5108548;28;20182;-90
2022/04/03 06:57:03;;;;;;;0.90;0.60;;;21.70;50.80;;;;;;5110126;28;20169;-90
2022/04/03 06:59:29;;;;;;;1.47;1.10;;;21.70;50.80;;;;;;5107573;28;20416;-90
2022/04/03 07:01:55;;;;;;;1.27;0.80;;;21.70;50.80;;;;;;5107859;28;20419;-90
2022/04/03 07:04:21;;;;;;;1.30;0.97;;;21.70;50.80;;;;;;5105711;28;20455;-88
2022/04/03 07:06:47;;;;;;;1.10;0.80;;;21.80;50.90;;;;;;5108153;28;20425;-90
2022/04/03 07:09:13;;;;;;;1.33;0.70;;;21.70;50.80;;;;;;5106699;28;20176;-90
2022/04/03 07:11:39;;;;;;;1.00;0.70;;;21.80;50.90;;;;;;5105459;28;20260;-89
2022/04/03 07:14:10;;;;;;;1.00;0.70;;;21.80;50.90;;;;;;5105997;28;20227;-89
2022/04/03 07:16:36;;;;;;;0.93;0.67;;;21.80;50.90;;;;;;5107802;28;20454;-89
2022/04/03 07:19:02;;;;;;;1.00;0.80;;;21.80;50.90;;;;;;5108874;28;20416;-88
2022/04/03 07:21:27;;;;;;;0.87;0.70;;;21.70;50.80;;;;;;5109661;28;20170;-90
2022/04/03 07:23:58;;;;;;;1.00;0.70;;;21.70;50.80;;;;;;5106984;28;20197;-89
2022/04/03 07:26:41;;;;;;;1.00;0.70;;;21.70;50.80;;;;;;5110575;28;20185;-90
2022/04/03 07:29:11;;;;;;;1.07;0.63;;;21.70;50.80;;;;;;5110308;28;20458;-90
2022/04/03 07:31:40;;;;;;;1.20;0.73;;;21.70;50.80;;;;;;5110043;28;20817;-90
2022/04/03 07:34:08;;;;;;;1.00;0.70;;;21.70;50.80;;;;;;5093044;28;20411;-89
2022/04/03 07:36:35;;;;;;;1.00;0.80;;;21.70;50.80;;;;;;5093384;28;20514;-89
2022/04/03 07:39:27;;;;;;;1.10;0.90;;;21.70;50.80;;;;;;5108018;28;20426;-89
2022/04/03 07:45:01;;;;;;;0.90;0.73;;;21.80;50.80;;;;;;5107753;28;20399;-89
2022/04/03 07:47:32;;;;;;;1.00;0.80;;;21.70;50.80;;;;;;5089669;28;20805;-89
2022/04/03 07:50:05;;;;;;;1.10;0.80;;;21.70;50.80;;;;;;5107426;28;20426;-88
2022/04/03 07:52:32;;;;;;;1.57;0.90;;;21.70;50.80;;;;;;5106696;28;20421;-89
2022/04/03 07:55:03;;;;;;;1.60;0.80;;;21.70;50.80;;;;;;5124339;28;20397;-89
2022/04/03 07:57:29;;;;;;;1.27;0.90;;;21.70;50.80;;;;;;5085536;28;20397;-89
2022/04/03 07:59:55;;;;;;;1.10;0.80;;;21.70;50.90;;;;;;5085964;28;20411;-89
2022/04/03 08:02:21;;;;;;;1.33;0.90;;;21.70;50.80;;;;;;5085398;28;20186;-89
2022/04/03 08:04:50;;;;;;;1.43;0.97;;;21.80;50.90;;;;;;5085496;28;20210;-89
2022/04/03 08:07:16;;;;;;;0.90;0.70;;;21.70;50.80;;;;;;5086602;28;20420;-89
2022/04/03 08:09:42;;;;;;;0.90;0.70;;;21.80;50.90;;;;;;5085808;28;20401;-89
2022/04/03 08:12:08;;;;;;;1.00;0.70;;;21.80;50.90;;;;;;5085864;28;20178;-89
2022/04/03 08:14:34;;;;;;;1.30;1.10;;;21.80;50.90;;;;;;5086216;28;20184;-89
2022/04/03 08:17:03;;;;;;;1.30;0.83;;;21.80;50.90;;;;;;5088483;28;20480;-89
2022/04/03 08:19:29;;;;;;;1.27;0.90;;;21.80;50.90;;;;;;5089468;28;20427;-89
2022/04/03 08:21:54;;;;;;;0.97;0.70;;;21.80;50.90;;;;;;5086875;28;20416;-89
2022/04/03 08:24:24;;;;;;;0.90;0.70;;;21.80;50.90;;;;;;5089083;28;20204;-88
2022/04/03 08:26:50;;;;;;;1.00;0.80;;;21.80;50.80;;;;;;5089766;28;20627;-88
2022/04/03 08:29:17;;;;;;;1.50;1.13;;;21.80;50.90;;;;;;5086242;28;20413;-88
2022/04/03 08:31:46;;;;;;;1.20;0.80;;;21.80;50.90;;;;;;5088349;28;20150;-89
2022/04/03 08:34:15;;;;;;;1.10;0.80;;;21.80;50.80;;;;;;5089112;28;20409;-90
2022/04/03 08:36:41;;;;;;;0.90;0.70;;;21.80;50.80;;;;;;5087051;28;20409;-89
2022/04/03 08:39:10;;;;;;;1.20;0.80;;;21.80;50.80;;;;;;5087077;28;20452;-89
2022/04/03 08:41:38;;;;;;;1.20;0.90;;;21.80;50.80;;;;;;5085927;28;20181;-89
2022/04/03 08:44:07;;;;;;;0.90;0.67;;;21.80;50.80;;;;;;5085466;28;20460;-89
2022/04/03 08:46:36;;;;;;;1.00;0.80;;;21.80;50.80;;;;;;5085495;28;20409;-89
2022/04/03 08:49:06;;;;;;;1.00;0.80;;;21.80;50.80;;;;;;5089644;28;20778;-89
2022/04/03 08:51:37;;;;;;;1.43;0.80;;;21.80;50.80;;;;;;5090449;28;20488;-89
2022/04/03 08:54:04;;;;;;;0.90;0.70;;;21.80;50.80;;;;;;5089222;28;20404;-90
2022/04/03 08:56:30;;;;;;;1.20;0.90;;;21.80;50.90;;;;;;5089168;28;20937;-89
2022/04/03 08:58:57;;;;;;;1.00;0.83;;;21.80;50.80;;;;;;5088583;28;20424;-88
2022/04/03 09:01:24;;;;;;;0.90;0.70;;;21.80;50.80;;;;;;5088481;28;20420;-89
2022/04/03 09:03:50;;;;;;;1.00;0.60;;;21.80;50.80;;;;;;5088683;28;20476;-89
2022/04/03 09:06:21;;;;;;;1.00;0.70;;;21.80;50.80;;;;;;5089989;28;20472;-89
2022/04/03 09:08:48;;;;;;;1.00;0.70;;;21.80;50.80;;;;;;5089331;28;20413;-89
2022/04/03 09:11:16;;;;;;;1.30;0.80;;;21.80;50.80;;;;;;5089603;28;20419;-89
2022/04/03 09:13:43;;;;;;;1.10;0.80;;;21.80;50.80;;;;;;5088397;28;20417;-90
2022/04/03 09:16:10;;;;;;;1.50;0.80;;;21.80;50.80;;;;;;5103386;28;20416;-90
2022/04/03 09:18:51;;;;;;;0.97;0.80;;;21.80;50.80;;;;;;5110697;28;20407;-90
2022/04/03 09:21:19;;;;;;;1.33;0.80;;;21.80;50.80;;;;;;5109747;28;20383;-90
2022/04/03 09:24:11;;;;;;;2.90;0.90;;;21.80;50.80;;;;;;5108719;28;20880;-90
2022/04/03 09:26:42;;;;;;;1.60;0.80;;;21.80;50.80;;;;;;5108237;28;20408;-90
2022/04/03 09:29:15;;;;;;;1.47;0.80;;;21.80;50.80;;;;;;5109989;28;20399;-90
2022/04/03 09:31:43;;;;;;;0.87;0.80;;;21.80;50.80;;;;;;5109964;28;20406;-90
2022/04/03 09:34:44;;;;;;;0.90;0.70;;;21.80;50.80;;;;;;5110886;28;20436;-90
2022/04/03 09:37:10;;;;;;;0.80;0.70;;;21.80;50.80;;;;;;5110794;28;20388;-90
2022/04/03 09:43:34;;;;;;;1.00;0.70;;;21.80;50.80;;;;;;5112490;28;20223;-88
2022/04/03 09:46:06;;;;;;;1.00;0.70;;;21.80;50.90;;;;;;5110629;28;20422;-90
2022/04/03 09:48:39;;;;;;;1.43;0.83;;;21.80;50.90;;;;;;5110493;28;20404;-90
2022/04/03 09:51:22;;;;;;;;;;;;;;;;;;;;;
2022/04/03 09:53:53;;;;;;;1.00;0.80;;;21.80;50.90;;;;;;5110557;28;20415;-90
2022/04/03 09:56:32;;;;;;;1.10;0.70;;;21.80;50.90;;;;;;5110157;28;20424;-90
2022/04/03 09:59:03;;;;;;;1.30;0.77;;;21.80;51.40;;;;;;5107846;28;20399;-89
2022/04/03 10:01:31;;;;;;;1.00;0.70;;;21.80;50.90;;;;;;5108927;28;20426;-90
2022/04/03 10:04:00;;;;;;;0.90;0.70;;;21.80;50.90;;;;;;5107930;28;20451;-90
2022/04/03 10:06:30;;;;;;;1.83;0.90;;;21.80;50.90;;;;;;5108648;28;20458;-89
2022/04/03 10:08:57;;;;;;;2.47;0.80;;;21.80;50.90;;;;;;5108618;28;20468;-88
2022/04/03 10:11:23;;;;;;;2.27;0.90;;;21.80;50.90;;;;;;5108598;28;20404;-90
2022/04/03 10:13:55;;;;;;;3.00;0.70;;;21.80;50.90;;;;;;5108353;28;20479;-90
2022/04/03 10:16:22;;;;;;;1.90;0.97;;;21.80;50.90;;;;;;5109459;28;20420;-90
2022/04/03 10:18:49;;;;;;;2.37;0.93;;;21.80;50.90;;;;;;5109653;28;20407;-90
2022/04/03 10:21:42;;;;;;;4.40;0.80;;;21.80;50.90;;;;;;5109190;28;20412;-90
2022/04/03 10:24:17;;;;;;;1.30;0.87;;;21.80;50.90;;;;;;5108140;28;20470;-90
2022/04/03 10:26:49;;;;;;;0.97;0.73;;;21.80;50.90;;;;;;5106875;28;20419;-90
2022/04/03 10:29:17;;;;;;;1.90;0.97;;;21.80;50.90;;;;;;5109849;28;20385;-90
2022/04/03 10:31:55;;;;;;;1.50;0.80;;;21.80;50.90;;;;;;5108583;28;20411;-90
2022/04/03 10:34:26;;;;;;;2.20;1.20;;;21.80;50.90;;;;;;5108844;28;20395;-89
2022/04/03 10:36:54;;;;;;;2.33;0.93;;;21.80;50.90;;;;;;5106975;28;20412;-90
2022/04/03 10:39:37;;;;;;;3.90;2.47;;;21.80;50.90;;;;;;5108137;28;20408;-90
2022/04/03 10:42:20;;;;;;;3.40;1.00;;;21.80;50.90;;;;;;5108328;28;20457;-90
2022/04/03 10:45:12;;;;;;;1.90;1.30;;;21.80;50.90;;;;;;5107760;28;20439;-90
2022/04/03 10:47:51;;;;;;;1.90;1.27;;;21.80;50.90;;;;;;5106641;28;20499;-90
2022/04/03 10:50:17;;;;;;;3.80;1.20;;;21.80;50.90;;;;;;5107013;28;20473;-90
2022/04/03 10:52:43;;;;;;;2.03;1.13;;;21.80;51.00;;;;;;5106273;28;20439;-90
2022/04/03 10:55:20;;;;;;;2.67;1.30;;;21.80;51.00;;;;;;5108035;28;20444;-90
2022/04/03 10:57:49;;;;;;;2.50;1.33;;;21.80;51.00;;;;;;5108629;28;20171;-91
2022/04/03 11:00:17;;;;;;;2.80;1.33;;;21.80;51.00;;;;;;5107094;28;20419;-91
2022/04/03 11:02:51;;;;;;;2.03;1.33;;;21.80;51.00;;;;;;5106285;28;20408;-90
2022/04/03 11:05:32;;;;;;;3.50;1.13;;;21.80;50.90;;;;;;5106583;28;20438;-90
2022/04/03 11:08:01;;;;;;;2.47;1.30;;;21.80;51.00;;;;;;5107474;28;20404;-91
2022/04/03 11:11:06;;;;;;;3.00;0.90;;;21.80;51.50;;;;;;5107534;28;20423;-91
2022/04/03 11:13:35;;;;;;;2.83;1.20;;;21.80;50.90;;;;;;5108390;28;20411;-91
2022/04/03 11:16:03;;;;;;;2.07;1.00;;;21.80;51.00;;;;;;5108773;28;20497;-90
2022/04/03 11:18:34;;;;;;;2.17;1.10;;;21.80;51.00;;;;;;5108133;28;20423;-90
2022/04/03 11:21:33;;;;;;;3.37;1.13;;;21.80;51.00;;;;;;5107380;28;20412;-90
2022/04/03 11:24:09;;;;;;;7.00;1.60;;;21.80;51.00;;;;;;5108455;28;20435;-90
2022/04/03 11:26:39;;;;;;;2.53;1.10;;;21.80;51.00;;;;;;5108185;28;20454;-90
2022/04/03 11:29:16;;;;;;;3.10;0.90;;;21.80;51.50;;;;;;5108784;28;20404;-90
2022/04/03 11:31:43;;;;;;;3.53;1.17;;;21.80;51.00;;;;;;5106955;28;20414;-90
2022/04/03 11:34:12;;;;;;;2.20;1.20;;;21.80;51.00;;;;;;5109015;28;20424;-92
2022/04/03 11:36:55;;;;;;;2.73;1.47;;;21.80;51.00;;;;;;5109845;28;20442;-91
2022/04/03 11:39:21;;;;;;;3.77;1.10;;;21.80;50.90;;;;;;5108757;28;20412;-91
2022/04/03 11:41:53;;;;;;;3.47;1.30;;;21.80;50.90;;;;;;5108732;28;20498;-91
2022/04/03 11:44:19;;;;;;;3.23;1.00;;;21.80;50.90;;;;;;5107181;28;20455;-91
2022/04/03 11:46:50;;;;;;;2.17;1.13;;;21.80;51.00;;;;;;5107725;28;20439;-90
2022/04/03 11:49:21;;;;;;;6.87;1.30;;;21.80;50.90;;;;;;5109036;28;20474;-90
2022/04/03 11:51:56;;;;;;;2.40;1.20;;;21.80;50.90;;;;;;5108143;28;20401;-91
2022/04/03 11:54:25;;;;;;;5.03;1.70;;;21.80;50.90;;;;;;5107829;28;20414;-90
2022/04/03 11:57:01;;;;;;;2.70;1.67;;;21.80;50.90;;;;;;5107137;28;20420;-91
2022/04/03 11:59:37;;;;;;;8.40;1.50;;;21.80;50.90;;;;;;5107453;28;20556;-91
2022/04/03 12:02:24;;;;;;;3.53;1.10;;;21.80;50.90;;;;;;5108975;28;20407;-90
2022/04/03 12:04:53;;;;;;;3.50;1.30;;;21.80;51.00;;;;;;5108288;28;20448;-90
2022/04/03 12:07:19;;;;;;;3.37;1.83;;;21.80;51.00;;;;;;5108141;28;20469;-91
2022/04/03 12:09:46;;;;;;;3.53;1.50;;;21.80;51.00;;;;;;5110411;28;20396;-90
2022/04/03 12:12:13;;;;;;;4.80;1.47;;;21.80;51.00;;;;;;5071460;28;20455;-90
2022/04/03 12:14:42;;;;;;;3.77;1.10;;;21.80;51.00;;;;;;5071789;28;20421;-90
2022/04/03 12:17:28;;;;;;;2.53;1.30;;;21.80;51.00;;;;;;5088851;28;20404;-90
2022/04/03 12:19:59;;;;;;;2.23;1.23;;;21.80;51.00;;;;;;4991638;28;20414;-90
2022/04/03 12:22:26;;;;;;;2.10;1.20;;;21.80;51.00;;;;;;4991009;28;20420;-90
2022/04/03 12:24:56;;;;;;;2.73;1.13;;;21.80;51.00;;;;;;4991865;28;20527;-90
2022/04/03 12:27:31;;;;;;;3.10;1.17;;;21.80;51.00;;;;;;4991247;28;20460;-90
2022/04/03 12:30:03;;;;;;;3.80;1.30;;;21.80;51.00;;;;;;4991838;28;20436;-91
2022/04/03 12:32:36;;;;;;;2.13;1.20;;;21.80;51.00;;;;;;4976332;28;20413;-90
2022/04/03 12:35:08;;;;;;;7.57;1.60;;;21.90;51.10;;;;;;5007958;28;20415;-90
2022/04/03 12:37:37;;;;;;;5.23;1.57;;;21.80;51.00;;;;;;4992167;28;20416;-90
2022/04/03 12:40:11;;;;;;;3.13;1.33;;;21.80;51.00;;;;;;4992010;28;20424;-92
2022/04/03 12:42:41;;;;;;;5.37;1.53;;;21.90;51.00;;;;;;5008160;28;20431;-91
2022/04/03 12:45:23;;;;;;;4.00;1.50;;;21.90;51.00;;;;;;4991720;28;20416;-91
2022/04/03 12:48:05;;;;;;;5.70;1.20;;;21.90;51.00;;;;;;4991148;28;20416;-91
2022/04/03 12:50:41;;;;;;;5.43;1.30;;;21.90;51.00;;;;;;5008410;28;20404;-91
2022/04/03 12:53:31;;;;;;;3.87;1.63;;;21.90;51.10;;;;;;4991200;28;20424;-91
2022/04/03 12:58:24;;;;;;;3.03;1.30;;;21.90;51.10;;;;;;4998558;28;20415;-91
2022/04/03 12:59:00;;;;;;;4.13;1.30;;;21.80;51.00;;;;;;5089298;28;20424;-91
2022/04/03 13:01:40;;;;;;;1.70;1.00;;;21.80;51.00;;;;;;5071421;28;20922;-91
2022/04/03 13:04:30;;;;;;;4.63;1.87;;;21.80;50.90;;;;;;5088120;28;20452;-91
2022/04/03 13:06:59;;;;;;;3.90;1.60;;;21.90;50.90;;;;;;5090811;28;20491;-90
2022/04/03 13:09:34;;;;;;;3.33;1.90;;;21.80;50.70;;;;;;5088840;28;20492;-91
2022/04/03 13:12:09;;;;;;;6.10;2.40;;;21.80;50.60;;;;;;5088159;28;20420;-91
2022/04/03 13:14:55;;;;;;;8.47;1.80;;;21.80;50.50;;;;;;5086617;28;20407;-90
2022/04/03 13:17:24;;;;;;;3.10;1.47;;;21.80;50.30;;;;;;5085168;28;20412;-90
2022/04/03 13:19:50;;;;;;;4.33;1.60;;;21.80;50.30;;;;;;5084623;28;20504;-90
2022/04/03 13:25:43;;;;;;;3.93;1.70;;;21.80;50.00;;;;;;5086253;28;20476;-90
2022/04/03 13:28:11;;;;;;;2.80;1.60;;;21.80;49.90;;;;;;5084196;28;20447;-90
2022/04/03 13:34:00;;;;;;;2.70;1.37;;;21.80;50.00;;;;;;5075018;28;20422;-90
2022/04/03 13:36:37;;;;;;;4.60;1.40;;;21.80;50.20;;;;;;5067725;28;20400;-89
2022/04/03 13:39:09;;;;;;;2.53;1.20;;;21.70;50.20;;;;;;5086701;28;20426;-90
2022/04/03 13:41:38;;;;;;;2.80;1.33;;;21.80;50.30;;;;;;5090493;28;20453;-89